CYPX

Puvirnituq Airport

ICAO Code CYPX
IATA Code YPX
Name Puvirnituq Airport
Location Puvirnituq, Quebec, CA
Elevation 83 Feet / 25.3 Meters
Latitude 60.05222222
Longitude -77.28750000
METAR CYPX 182246Z AUTO 23003KT 210V270 9SM SCT010 OVC060 14/11 A2976 RMK SLP081 DENSITY ALT 200FT
Extra information Display NOTAMS
Display Charts
Runway Length Width Surface Elevation
01 6299 ft 148 ft GVL 54 ft
19 6299 ft 148 ft GVL 83 ft